sensor_id;sensor_type;location;lat;lon;timestamp;P1;durP1;ratioP1;P2;durP2;ratioP2
78686;SDS011;68002;52.310;6.990;2023-05-16T00:01:43;10.23;;;2.10;;
78686;SDS011;68002;52.310;6.990;2023-05-16T00:04:08;6.83;;;2.07;;
78686;SDS011;68002;52.310;6.990;2023-05-16T00:06:33;4.73;;;1.20;;
78686;SDS011;68002;52.310;6.990;2023-05-16T00:08:58;7.40;;;2.10;;
78686;SDS011;68002;52.310;6.990;2023-05-16T00:11:23;5.17;;;1.30;;
78686;SDS011;68002;52.310;6.990;2023-05-16T00:13:49;7.03;;;2.13;;
78686;SDS011;68002;52.310;6.990;2023-05-16T00:16:14;6.67;;;1.60;;
78686;SDS011;68002;52.310;6.990;2023-05-16T00:18:39;9.40;;;2.33;;
78686;SDS011;68002;52.310;6.990;2023-05-16T00:21:04;6.47;;;1.77;;
78686;SDS011;68002;52.310;6.990;2023-05-16T00:23:30;7.60;;;1.98;;
78686;SDS011;68002;52.310;6.990;2023-05-16T00:25:56;8.50;;;1.60;;
78686;SDS011;68002;52.310;6.990;2023-05-16T00:28:21;9.30;;;2.13;;
78686;SDS011;68002;52.310;6.990;2023-05-16T00:30:46;8.13;;;2.03;;
78686;SDS011;68002;52.310;6.990;2023-05-16T00:33:12;5.25;;;1.90;;
78686;SDS011;68002;52.310;6.990;2023-05-16T00:35:37;8.27;;;1.67;;
78686;SDS011;68002;52.310;6.990;2023-05-16T00:38:02;6.87;;;1.57;;
78686;SDS011;68002;52.310;6.990;2023-05-16T00:40:27;7.50;;;1.47;;
78686;SDS011;68002;52.310;6.990;2023-05-16T00:42:53;6.70;;;1.50;;
78686;SDS011;68002;52.310;6.990;2023-05-16T00:45:18;6.77;;;1.80;;
78686;SDS011;68002;52.310;6.990;2023-05-16T00:47:43;9.47;;;2.27;;
78686;SDS011;68002;52.310;6.990;2023-05-16T00:50:08;8.47;;;2.00;;
78686;SDS011;68002;52.310;6.990;2023-05-16T00:52:34;6.65;;;1.75;;
78686;SDS011;68002;52.310;6.990;2023-05-16T00:54:59;6.37;;;1.93;;
78686;SDS011;68002;52.310;6.990;2023-05-16T00:57:24;14.60;;;2.73;;
78686;SDS011;68002;52.310;6.990;2023-05-16T00:59:50;6.97;;;1.70;;
78686;SDS011;68002;52.310;6.990;2023-05-16T01:02:15;7.47;;;2.33;;
78686;SDS011;68002;52.310;6.990;2023-05-16T01:04:41;8.33;;;1.67;;
78686;SDS011;68002;52.310;6.990;2023-05-16T01:07:07;9.45;;;1.80;;
78686;SDS011;68002;52.310;6.990;2023-05-16T01:09:33;7.40;;;2.00;;
78686;SDS011;68002;52.310;6.990;2023-05-16T01:12:15;11.20;;;1.98;;
78686;SDS011;68002;52.310;6.990;2023-05-16T01:17:37;9.00;;;1.92;;
78686;SDS011;68002;52.310;6.990;2023-05-16T01:22:50;6.93;;;1.85;;
78686;SDS011;68002;52.310;6.990;2023-05-16T01:25:45;6.90;;;1.98;;
78686;SDS011;68002;52.310;6.990;2023-05-16T01:28:20;7.72;;;2.55;;
78686;SDS011;68002;52.310;6.990;2023-05-16T01:30:46;7.05;;;1.48;;
78686;SDS011;68002;52.310;6.990;2023-05-16T01:33:12;10.17;;;1.70;;
78686;SDS011;68002;52.310;6.990;2023-05-16T01:35:46;7.47;;;2.10;;
78686;SDS011;68002;52.310;6.990;2023-05-16T01:41:40;9.75;;;2.00;;
78686;SDS011;68002;52.310;6.990;2023-05-16T01:44:19;14.57;;;3.47;;
78686;SDS011;68002;52.310;6.990;2023-05-16T01:46:46;7.55;;;1.55;;
78686;SDS011;68002;52.310;6.990;2023-05-16T01:49:23;7.80;;;2.10;;
78686;SDS011;68002;52.310;6.990;2023-05-16T01:51:53;9.60;;;1.52;;
78686;SDS011;68002;52.310;6.990;2023-05-16T01:54:23;10.13;;;1.85;;
78686;SDS011;68002;52.310;6.990;2023-05-16T01:56:53;6.07;;;2.00;;
78686;SDS011;68002;52.310;6.990;2023-05-16T01:59:20;8.70;;;1.92;;
78686;SDS011;68002;52.310;6.990;2023-05-16T02:01:47;10.65;;;1.75;;
78686;SDS011;68002;52.310;6.990;2023-05-16T02:04:12;8.60;;;2.53;;
78686;SDS011;68002;52.310;6.990;2023-05-16T02:06:37;8.73;;;2.17;;
78686;SDS011;68002;52.310;6.990;2023-05-16T02:09:03;7.47;;;1.98;;
78686;SDS011;68002;52.310;6.990;2023-05-16T02:11:28;8.50;;;1.93;;
78686;SDS011;68002;52.310;6.990;2023-05-16T02:13:53;8.77;;;2.30;;
78686;SDS011;68002;52.310;6.990;2023-05-16T02:16:18;10.63;;;2.10;;
78686;SDS011;68002;52.310;6.990;2023-05-16T02:18:44;9.73;;;1.80;;
78686;SDS011;68002;52.310;6.990;2023-05-16T02:21:09;7.23;;;1.73;;
78686;SDS011;68002;52.310;6.990;2023-05-16T02:23:34;10.80;;;1.77;;
78686;SDS011;68002;52.310;6.990;2023-05-16T02:25:59;9.43;;;1.60;;
78686;SDS011;68002;52.310;6.990;2023-05-16T02:28:24;8.63;;;2.10;;
78686;SDS011;68002;52.310;6.990;2023-05-16T02:30:56;10.83;;;1.67;;
78686;SDS011;68002;52.310;6.990;2023-05-16T02:33:22;9.25;;;1.48;;
78686;SDS011;68002;52.310;6.990;2023-05-16T02:35:47;9.50;;;1.77;;
78686;SDS011;68002;52.310;6.990;2023-05-16T02:38:12;14.27;;;1.70;;
78686;SDS011;68002;52.310;6.990;2023-05-16T02:40:37;6.00;;;1.70;;
78686;SDS011;68002;52.310;6.990;2023-05-16T02:43:03;7.37;;;1.60;;
78686;SDS011;68002;52.310;6.990;2023-05-16T02:45:28;6.73;;;1.33;;
78686;SDS011;68002;52.310;6.990;2023-05-16T02:47:53;7.60;;;1.03;;
78686;SDS011;68002;52.310;6.990;2023-05-16T02:50:18;6.83;;;1.57;;
78686;SDS011;68002;52.310;6.990;2023-05-16T02:52:43;5.27;;;1.60;;
78686;SDS011;68002;52.310;6.990;2023-05-16T02:55:09;10.03;;;1.90;;
78686;SDS011;68002;52.310;6.990;2023-05-16T02:57:34;7.80;;;1.70;;
78686;SDS011;68002;52.310;6.990;2023-05-16T02:59:59;11.23;;;1.93;;
78686;SDS011;68002;52.310;6.990;2023-05-16T03:02:24;7.00;;;0.97;;
78686;SDS011;68002;52.310;6.990;2023-05-16T03:04:50;7.40;;;1.40;;
78686;SDS011;68002;52.310;6.990;2023-05-16T03:07:15;7.23;;;1.43;;
78686;SDS011;68002;52.310;6.990;2023-05-16T03:09:40;10.17;;;1.90;;
78686;SDS011;68002;52.310;6.990;2023-05-16T03:12:05;6.07;;;1.73;;
78686;SDS011;68002;52.310;6.990;2023-05-16T03:14:31;7.18;;;1.52;;
78686;SDS011;68002;52.310;6.990;2023-05-16T03:16:56;8.40;;;1.07;;
78686;SDS011;68002;52.310;6.990;2023-05-16T03:19:21;6.60;;;1.43;;
78686;SDS011;68002;52.310;6.990;2023-05-16T03:21:46;6.40;;;1.37;;
78686;SDS011;68002;52.310;6.990;2023-05-16T03:24:11;6.73;;;0.90;;
78686;SDS011;68002;52.310;6.990;2023-05-16T03:26:37;6.47;;;1.53;;
78686;SDS011;68002;52.310;6.990;2023-05-16T03:29:02;11.07;;;2.30;;
78686;SDS011;68002;52.310;6.990;2023-05-16T03:31:27;9.63;;;1.73;;
78686;SDS011;68002;52.310;6.990;2023-05-16T03:33:52;10.30;;;1.73;;
78686;SDS011;68002;52.310;6.990;2023-05-16T03:36:20;7.87;;;1.40;;
78686;SDS011;68002;52.310;6.990;2023-05-16T03:38:45;9.48;;;1.70;;
78686;SDS011;68002;52.310;6.990;2023-05-16T03:41:11;8.60;;;1.30;;
78686;SDS011;68002;52.310;6.990;2023-05-16T03:43:36;10.07;;;1.80;;
78686;SDS011;68002;52.310;6.990;2023-05-16T03:46:01;6.03;;;1.30;;
78686;SDS011;68002;52.310;6.990;2023-05-16T03:48:26;6.57;;;1.70;;
78686;SDS011;68002;52.310;6.990;2023-05-16T03:50:52;6.87;;;1.53;;
78686;SDS011;68002;52.310;6.990;2023-05-16T03:53:17;8.17;;;1.60;;
78686;SDS011;68002;52.310;6.990;2023-05-16T03:55:42;5.73;;;1.10;;
78686;SDS011;68002;52.310;6.990;2023-05-16T03:58:07;5.87;;;1.13;;
78686;SDS011;68002;52.310;6.990;2023-05-16T04:00:32;12.83;;;2.27;;
78686;SDS011;68002;52.310;6.990;2023-05-16T04:02:58;8.23;;;1.80;;
78686;SDS011;68002;52.310;6.990;2023-05-16T04:05:23;7.80;;;1.90;;
78686;SDS011;68002;52.310;6.990;2023-05-16T04:07:48;5.23;;;2.17;;
78686;SDS011;68002;52.310;6.990;2023-05-16T04:10:13;6.43;;;1.70;;
78686;SDS011;68002;52.310;6.990;2023-05-16T04:12:39;7.70;;;1.47;;
78686;SDS011;68002;52.310;6.990;2023-05-16T04:15:04;9.87;;;1.40;;
78686;SDS011;68002;52.310;6.990;2023-05-16T04:17:30;8.32;;;1.67;;
78686;SDS011;68002;52.310;6.990;2023-05-16T04:19:56;8.97;;;1.63;;
78686;SDS011;68002;52.310;6.990;2023-05-16T04:22:21;8.60;;;2.05;;
78686;SDS011;68002;52.310;6.990;2023-05-16T04:24:46;4.65;;;1.30;;
78686;SDS011;68002;52.310;6.990;2023-05-16T04:27:12;7.22;;;1.38;;
78686;SDS011;68002;52.310;6.990;2023-05-16T04:29:37;11.03;;;1.40;;
78686;SDS011;68002;52.310;6.990;2023-05-16T04:32:02;9.67;;;1.50;;
78686;SDS011;68002;52.310;6.990;2023-05-16T04:34:28;7.78;;;1.50;;
78686;SDS011;68002;52.310;6.990;2023-05-16T04:36:53;6.27;;;1.33;;
78686;SDS011;68002;52.310;6.990;2023-05-16T04:39:18;9.70;;;1.73;;
78686;SDS011;68002;52.310;6.990;2023-05-16T04:41:43;3.67;;;1.47;;
78686;SDS011;68002;52.310;6.990;2023-05-16T04:44:09;10.03;;;1.53;;
78686;SDS011;68002;52.310;6.990;2023-05-16T04:46:34;9.37;;;1.40;;
78686;SDS011;68002;52.310;6.990;2023-05-16T04:48:59;6.30;;;1.67;;
78686;SDS011;68002;52.310;6.990;2023-05-16T04:51:24;6.63;;;1.97;;
78686;SDS011;68002;52.310;6.990;2023-05-16T04:53:50;6.83;;;1.20;;
78686;SDS011;68002;52.310;6.990;2023-05-16T04:56:15;7.20;;;1.63;;
78686;SDS011;68002;52.310;6.990;2023-05-16T04:58:40;5.27;;;1.23;;
78686;SDS011;68002;52.310;6.990;2023-05-16T05:01:05;7.60;;;1.90;;
78686;SDS011;68002;52.310;6.990;2023-05-16T05:03:31;6.80;;;1.60;;
78686;SDS011;68002;52.310;6.990;2023-05-16T05:05:56;5.32;;;1.17;;
78686;SDS011;68002;52.310;6.990;2023-05-16T05:08:21;9.00;;;2.13;;
78686;SDS011;68002;52.310;6.990;2023-05-16T05:10:46;13.50;;;1.40;;
78686;SDS011;68002;52.310;6.990;2023-05-16T05:13:12;6.10;;;1.43;;
78686;SDS011;68002;52.310;6.990;2023-05-16T05:15:37;9.30;;;1.87;;
78686;SDS011;68002;52.310;6.990;2023-05-16T05:18:02;5.43;;;1.17;;
78686;SDS011;68002;52.310;6.990;2023-05-16T05:20:28;7.00;;;1.35;;
78686;SDS011;68002;52.310;6.990;2023-05-16T05:22:53;5.37;;;0.83;;
78686;SDS011;68002;52.310;6.990;2023-05-16T05:25:18;8.07;;;1.97;;
78686;SDS011;68002;52.310;6.990;2023-05-16T05:27:43;9.03;;;2.00;;
78686;SDS011;68002;52.310;6.990;2023-05-16T05:30:09;6.53;;;1.03;;
78686;SDS011;68002;52.310;6.990;2023-05-16T05:32:34;5.68;;;0.98;;
78686;SDS011;68002;52.310;6.990;2023-05-16T05:34:59;7.50;;;2.30;;
78686;SDS011;68002;52.310;6.990;2023-05-16T05:37:25;6.40;;;1.57;;
78686;SDS011;68002;52.310;6.990;2023-05-16T05:39:50;6.78;;;0.90;;
78686;SDS011;68002;52.310;6.990;2023-05-16T05:42:15;12.23;;;2.37;;
78686;SDS011;68002;52.310;6.990;2023-05-16T05:44:41;4.37;;;1.10;;
78686;SDS011;68002;52.310;6.990;2023-05-16T05:47:06;5.40;;;1.27;;
78686;SDS011;68002;52.310;6.990;2023-05-16T05:49:31;3.95;;;1.02;;
78686;SDS011;68002;52.310;6.990;2023-05-16T05:51:57;6.28;;;1.38;;
78686;SDS011;68002;52.310;6.990;2023-05-16T05:54:23;5.78;;;0.95;;
78686;SDS011;68002;52.310;6.990;2023-05-16T05:56:49;5.60;;;1.13;;
78686;SDS011;68002;52.310;6.990;2023-05-16T05:59:14;5.43;;;1.13;;
78686;SDS011;68002;52.310;6.990;2023-05-16T06:01:39;7.23;;;1.03;;
78686;SDS011;68002;52.310;6.990;2023-05-16T06:04:04;5.68;;;0.80;;
78686;SDS011;68002;52.310;6.990;2023-05-16T06:06:30;5.90;;;1.23;;
78686;SDS011;68002;52.310;6.990;2023-05-16T06:08:56;5.57;;;0.77;;
78686;SDS011;68002;52.310;6.990;2023-05-16T06:11:21;6.72;;;1.17;;
78686;SDS011;68002;52.310;6.990;2023-05-16T06:13:46;4.80;;;1.43;;
78686;SDS011;68002;52.310;6.990;2023-05-16T06:16:12;4.90;;;1.07;;
78686;SDS011;68002;52.310;6.990;2023-05-16T06:18:37;3.72;;;1.15;;
78686;SDS011;68002;52.310;6.990;2023-05-16T06:21:03;7.70;;;0.90;;
78686;SDS011;68002;52.310;6.990;2023-05-16T06:23:28;5.75;;;1.40;;
78686;SDS011;68002;52.310;6.990;2023-05-16T06:25:54;7.17;;;1.20;;
78686;SDS011;68002;52.310;6.990;2023-05-16T06:28:19;5.53;;;0.87;;
78686;SDS011;68002;52.310;6.990;2023-05-16T06:30:44;4.07;;;0.67;;
78686;SDS011;68002;52.310;6.990;2023-05-16T06:33:09;5.00;;;0.70;;
78686;SDS011;68002;52.310;6.990;2023-05-16T06:35:34;3.97;;;1.20;;
78686;SDS011;68002;52.310;6.990;2023-05-16T06:38:00;7.97;;;1.30;;
78686;SDS011;68002;52.310;6.990;2023-05-16T06:40:25;5.37;;;1.27;;
78686;SDS011;68002;52.310;6.990;2023-05-16T06:42:50;7.00;;;1.47;;
78686;SDS011;68002;52.310;6.990;2023-05-16T06:45:15;6.67;;;0.93;;
78686;SDS011;68002;52.310;6.990;2023-05-16T06:47:41;7.27;;;1.67;;
78686;SDS011;68002;52.310;6.990;2023-05-16T06:50:06;5.73;;;1.13;;
78686;SDS011;68002;52.310;6.990;2023-05-16T06:52:32;7.20;;;1.23;;
78686;SDS011;68002;52.310;6.990;2023-05-16T06:54:57;4.23;;;1.03;;
78686;SDS011;68002;52.310;6.990;2023-05-16T06:57:22;5.97;;;1.03;;
78686;SDS011;68002;52.310;6.990;2023-05-16T06:59:48;6.33;;;0.80;;
78686;SDS011;68002;52.310;6.990;2023-05-16T07:02:13;5.47;;;0.70;;
78686;SDS011;68002;52.310;6.990;2023-05-16T07:04:38;3.80;;;0.57;;
78686;SDS011;68002;52.310;6.990;2023-05-16T07:07:03;7.70;;;1.10;;
78686;SDS011;68002;52.310;6.990;2023-05-16T07:09:29;4.32;;;0.93;;
78686;SDS011;68002;52.310;6.990;2023-05-16T07:11:54;4.85;;;0.75;;
78686;SDS011;68002;52.310;6.990;2023-05-16T07:14:19;3.53;;;0.50;;
78686;SDS011;68002;52.310;6.990;2023-05-16T07:16:45;4.20;;;0.83;;
78686;SDS011;68002;52.310;6.990;2023-05-16T07:19:10;4.13;;;1.23;;
78686;SDS011;68002;52.310;6.990;2023-05-16T07:21:35;3.20;;;0.50;;
78686;SDS011;68002;52.310;6.990;2023-05-16T07:24:00;3.83;;;1.00;;
78686;SDS011;68002;52.310;6.990;2023-05-16T07:26:25;3.70;;;0.57;;
78686;SDS011;68002;52.310;6.990;2023-05-16T07:28:51;2.63;;;0.50;;
78686;SDS011;68002;52.310;6.990;2023-05-16T07:31:16;7.05;;;1.10;;
78686;SDS011;68002;52.310;6.990;2023-05-16T07:33:43;4.47;;;1.05;;
78686;SDS011;68002;52.310;6.990;2023-05-16T07:36:09;5.65;;;1.20;;
78686;SDS011;68002;52.310;6.990;2023-05-16T07:38:34;5.57;;;0.90;;
78686;SDS011;68002;52.310;6.990;2023-05-16T07:40:59;5.57;;;1.37;;
78686;SDS011;68002;52.310;6.990;2023-05-16T07:43:25;4.87;;;0.90;;
78686;SDS011;68002;52.310;6.990;2023-05-16T07:45:50;3.37;;;0.63;;
78686;SDS011;68002;52.310;6.990;2023-05-16T07:48:15;4.27;;;0.83;;
78686;SDS011;68002;52.310;6.990;2023-05-16T07:50:41;2.90;;;0.60;;
78686;SDS011;68002;52.310;6.990;2023-05-16T07:53:07;4.97;;;0.95;;
78686;SDS011;68002;52.310;6.990;2023-05-16T07:55:32;5.10;;;0.40;;
78686;SDS011;68002;52.310;6.990;2023-05-16T07:57:58;5.57;;;0.93;;
78686;SDS011;68002;52.310;6.990;2023-05-16T08:00:23;2.30;;;0.67;;
78686;SDS011;68002;52.310;6.990;2023-05-16T08:02:48;6.83;;;1.10;;
78686;SDS011;68002;52.310;6.990;2023-05-16T08:05:13;5.87;;;0.77;;
78686;SDS011;68002;52.310;6.990;2023-05-16T08:07:39;2.23;;;0.60;;
78686;SDS011;68002;52.310;6.990;2023-05-16T08:10:04;3.83;;;0.90;;
78686;SDS011;68002;52.310;6.990;2023-05-16T08:12:30;3.83;;;0.70;;
78686;SDS011;68002;52.310;6.990;2023-05-16T08:14:55;4.20;;;0.50;;
78686;SDS011;68002;52.310;6.990;2023-05-16T08:17:21;3.13;;;0.77;;
78686;SDS011;68002;52.310;6.990;2023-05-16T08:19:46;3.55;;;0.40;;
78686;SDS011;68002;52.310;6.990;2023-05-16T08:22:11;6.70;;;0.80;;
78686;SDS011;68002;52.310;6.990;2023-05-16T08:24:36;3.57;;;0.40;;
78686;SDS011;68002;52.310;6.990;2023-05-16T08:27:02;3.83;;;1.20;;
78686;SDS011;68002;52.310;6.990;2023-05-16T08:29:27;2.60;;;0.60;;
78686;SDS011;68002;52.310;6.990;2023-05-16T08:31:52;6.20;;;0.90;;
78686;SDS011;68002;52.310;6.990;2023-05-16T08:34:17;3.33;;;0.60;;
78686;SDS011;68002;52.310;6.990;2023-05-16T08:36:43;3.43;;;0.60;;
78686;SDS011;68002;52.310;6.990;2023-05-16T08:39:08;4.00;;;0.83;;
78686;SDS011;68002;52.310;6.990;2023-05-16T08:41:33;1.70;;;0.50;;
78686;SDS011;68002;52.310;6.990;2023-05-16T08:43:58;3.40;;;0.60;;
78686;SDS011;68002;52.310;6.990;2023-05-16T08:46:24;2.33;;;0.40;;
78686;SDS011;68002;52.310;6.990;2023-05-16T08:48:52;5.70;;;0.93;;
78686;SDS011;68002;52.310;6.990;2023-05-16T08:51:18;2.25;;;1.15;;
78686;SDS011;68002;52.310;6.990;2023-05-16T08:53:44;4.60;;;0.98;;
78686;SDS011;68002;52.310;6.990;2023-05-16T08:56:35;5.00;;;0.77;;
78686;SDS011;68002;52.310;6.990;2023-05-16T08:59:01;3.95;;;0.52;;
78686;SDS011;68002;52.310;6.990;2023-05-16T09:01:27;3.83;;;0.75;;
78686;SDS011;68002;52.310;6.990;2023-05-16T09:03:52;3.13;;;0.73;;
78686;SDS011;68002;52.310;6.990;2023-05-16T09:06:19;2.10;;;0.85;;
78686;SDS011;68002;52.310;6.990;2023-05-16T09:08:44;2.87;;;0.80;;
78686;SDS011;68002;52.310;6.990;2023-05-16T09:11:09;2.70;;;0.52;;
78686;SDS011;68002;52.310;6.990;2023-05-16T09:13:36;2.17;;;0.57;;
78686;SDS011;68002;52.310;6.990;2023-05-16T09:18:58;2.83;;;0.70;;
78686;SDS011;68002;52.310;6.990;2023-05-16T09:21:27;4.13;;;0.70;;
78686;SDS011;68002;52.310;6.990;2023-05-16T09:23:53;3.05;;;0.73;;
78686;SDS011;68002;52.310;6.990;2023-05-16T09:26:19;4.40;;;0.32;;
78686;SDS011;68002;52.310;6.990;2023-05-16T09:28:44;2.73;;;0.50;;
78686;SDS011;68002;52.310;6.990;2023-05-16T09:31:19;1.63;;;0.60;;
78686;SDS011;68002;52.310;6.990;2023-05-16T09:33:45;2.28;;;0.55;;
78686;SDS011;68002;52.310;6.990;2023-05-16T09:36:11;1.23;;;0.40;;
78686;SDS011;68002;52.310;6.990;2023-05-16T09:38:36;3.93;;;0.40;;
78686;SDS011;68002;52.310;6.990;2023-05-16T09:41:01;3.45;;;0.73;;
78686;SDS011;68002;52.310;6.990;2023-05-16T09:43:27;4.90;;;0.70;;
78686;SDS011;68002;52.310;6.990;2023-05-16T09:45:52;2.37;;;0.47;;
78686;SDS011;68002;52.310;6.990;2023-05-16T09:48:19;3.30;;;0.57;;
78686;SDS011;68002;52.310;6.990;2023-05-16T09:50:46;2.85;;;0.60;;
78686;SDS011;68002;52.310;6.990;2023-05-16T09:53:13;2.42;;;0.63;;
78686;SDS011;68002;52.310;6.990;2023-05-16T09:55:38;3.20;;;0.73;;
78686;SDS011;68002;52.310;6.990;2023-05-16T09:58:03;1.67;;;0.60;;
78686;SDS011;68002;52.310;6.990;2023-05-16T10:00:29;2.03;;;0.63;;
78686;SDS011;68002;52.310;6.990;2023-05-16T10:02:56;2.47;;;0.73;;
78686;SDS011;68002;52.310;6.990;2023-05-16T10:05:23;2.60;;;0.43;;
78686;SDS011;68002;52.310;6.990;2023-05-16T10:07:50;2.78;;;0.43;;
78686;SDS011;68002;52.310;6.990;2023-05-16T10:10:19;2.85;;;0.52;;
78686;SDS011;68002;52.310;6.990;2023-05-16T10:12:44;3.15;;;0.55;;
78686;SDS011;68002;52.310;6.990;2023-05-16T10:15:09;3.77;;;0.40;;
78686;SDS011;68002;52.310;6.990;2023-05-16T10:17:35;3.83;;;0.88;;
78686;SDS011;68002;52.310;6.990;2023-05-16T10:20:05;4.72;;;0.68;;
78686;SDS011;68002;52.310;6.990;2023-05-16T10:22:32;3.45;;;0.82;;
78686;SDS011;68002;52.310;6.990;2023-05-16T10:25:16;4.63;;;1.05;;
78686;SDS011;68002;52.310;6.990;2023-05-16T10:27:48;4.00;;;0.65;;
78686;SDS011;68002;52.310;6.990;2023-05-16T10:30:14;2.65;;;0.73;;
78686;SDS011;68002;52.310;6.990;2023-05-16T10:32:41;5.60;;;0.85;;
78686;SDS011;68002;52.310;6.990;2023-05-16T10:35:08;6.97;;;0.65;;
78686;SDS011;68002;52.310;6.990;2023-05-16T10:37:34;3.15;;;0.85;;
78686;SDS011;68002;52.310;6.990;2023-05-16T10:40:00;3.42;;;0.73;;
78686;SDS011;68002;52.310;6.990;2023-05-16T10:42:26;2.83;;;0.70;;
78686;SDS011;68002;52.310;6.990;2023-05-16T10:45:05;2.50;;;0.97;;
78686;SDS011;68002;52.310;6.990;2023-05-16T10:47:33;3.47;;;0.75;;
78686;SDS011;68002;52.310;6.990;2023-05-16T10:49:58;4.83;;;0.60;;
78686;SDS011;68002;52.310;6.990;2023-05-16T10:52:31;2.87;;;0.70;;
78686;SDS011;68002;52.310;6.990;2023-05-16T10:54:57;4.47;;;1.05;;
78686;SDS011;68002;52.310;6.990;2023-05-16T10:57:27;2.47;;;0.70;;
78686;SDS011;68002;52.310;6.990;2023-05-16T10:59:52;2.67;;;0.80;;
78686;SDS011;68002;52.310;6.990;2023-05-16T11:02:22;1.73;;;0.50;;
78686;SDS011;68002;52.310;6.990;2023-05-16T11:04:47;3.15;;;0.43;;
78686;SDS011;68002;52.310;6.990;2023-05-16T11:07:14;3.22;;;0.60;;
78686;SDS011;68002;52.310;6.990;2023-05-16T11:09:44;3.22;;;0.60;;
78686;SDS011;68002;52.310;6.990;2023-05-16T11:12:09;3.13;;;0.68;;
78686;SDS011;68002;52.310;6.990;2023-05-16T11:14:39;1.80;;;0.63;;
78686;SDS011;68002;52.310;6.990;2023-05-16T11:17:12;2.08;;;0.55;;
78686;SDS011;68002;52.310;6.990;2023-05-16T11:19:48;3.38;;;0.60;;
78686;SDS011;68002;52.310;6.990;2023-05-16T11:27:21;3.97;;;0.93;;
78686;SDS011;68002;52.310;6.990;2023-05-16T11:30:09;2.42;;;0.52;;
78686;SDS011;68002;52.310;6.990;2023-05-16T11:32:37;2.63;;;0.95;;
78686;SDS011;68002;52.310;6.990;2023-05-16T11:35:04;2.40;;;0.45;;
78686;SDS011;68002;52.310;6.990;2023-05-16T11:37:30;2.47;;;0.55;;
78686;SDS011;68002;52.310;6.990;2023-05-16T11:40:01;3.73;;;0.83;;
78686;SDS011;68002;52.310;6.990;2023-05-16T11:42:28;3.97;;;0.93;;
78686;SDS011;68002;52.310;6.990;2023-05-16T11:45:07;1.50;;;0.43;;
78686;SDS011;68002;52.310;6.990;2023-05-16T11:47:35;2.88;;;0.65;;
78686;SDS011;68002;52.310;6.990;2023-05-16T11:50:02;3.15;;;0.68;;
78686;SDS011;68002;52.310;6.990;2023-05-16T11:52:29;2.90;;;0.80;;
78686;SDS011;68002;52.310;6.990;2023-05-16T11:54:55;3.97;;;0.50;;
78686;SDS011;68002;52.310;6.990;2023-05-16T11:57:20;3.90;;;0.50;;
78686;SDS011;68002;52.310;6.990;2023-05-16T11:59:45;3.37;;;0.80;;
78686;SDS011;68002;52.310;6.990;2023-05-16T12:02:10;4.07;;;0.40;;
78686;SDS011;68002;52.310;6.990;2023-05-16T12:04:36;5.30;;;0.97;;
78686;SDS011;68002;52.310;6.990;2023-05-16T12:07:01;4.17;;;0.60;;
78686;SDS011;68002;52.310;6.990;2023-05-16T12:09:26;3.30;;;0.87;;
78686;SDS011;68002;52.310;6.990;2023-05-16T12:11:51;2.00;;;0.80;;
78686;SDS011;68002;52.310;6.990;2023-05-16T12:14:17;3.30;;;0.77;;
78686;SDS011;68002;52.310;6.990;2023-05-16T12:16:43;2.00;;;0.47;;
78686;SDS011;68002;52.310;6.990;2023-05-16T12:19:09;4.68;;;0.65;;
78686;SDS011;68002;52.310;6.990;2023-05-16T12:21:35;4.53;;;0.98;;
78686;SDS011;68002;52.310;6.990;2023-05-16T12:24:02;4.15;;;0.65;;
78686;SDS011;68002;52.310;6.990;2023-05-16T12:26:28;3.22;;;0.55;;
78686;SDS011;68002;52.310;6.990;2023-05-16T12:29:01;3.67;;;0.80;;
78686;SDS011;68002;52.310;6.990;2023-05-16T12:31:27;4.88;;;0.95;;
78686;SDS011;68002;52.310;6.990;2023-05-16T12:33:53;1.55;;;0.47;;
78686;SDS011;68002;52.310;6.990;2023-05-16T12:36:18;5.63;;;0.87;;
78686;SDS011;68002;52.310;6.990;2023-05-16T12:38:47;2.92;;;0.75;;
78686;SDS011;68002;52.310;6.990;2023-05-16T12:41:18;4.85;;;0.75;;
78686;SDS011;68002;52.310;6.990;2023-05-16T12:43:46;4.30;;;0.73;;
78686;SDS011;68002;52.310;6.990;2023-05-16T12:46:15;2.75;;;0.73;;
78686;SDS011;68002;52.310;6.990;2023-05-16T12:48:40;2.53;;;0.68;;
78686;SDS011;68002;52.310;6.990;2023-05-16T12:51:09;2.05;;;0.73;;
78686;SDS011;68002;52.310;6.990;2023-05-16T12:53:39;2.13;;;0.60;;
78686;SDS011;68002;52.310;6.990;2023-05-16T12:56:06;2.78;;;0.93;;
78686;SDS011;68002;52.310;6.990;2023-05-16T12:58:31;2.93;;;0.93;;
78686;SDS011;68002;52.310;6.990;2023-05-16T13:00:56;3.60;;;0.90;;
78686;SDS011;68002;52.310;6.990;2023-05-16T13:03:22;2.30;;;1.00;;
78686;SDS011;68002;52.310;6.990;2023-05-16T13:05:47;4.53;;;0.80;;
78686;SDS011;68002;52.310;6.990;2023-05-16T13:08:12;4.90;;;1.00;;
78686;SDS011;68002;52.310;6.990;2023-05-16T13:10:37;2.07;;;0.77;;
78686;SDS011;68002;52.310;6.990;2023-05-16T13:13:02;6.50;;;1.10;;
78686;SDS011;68002;52.310;6.990;2023-05-16T13:15:28;3.10;;;0.60;;
78686;SDS011;68002;52.310;6.990;2023-05-16T13:17:53;2.93;;;0.80;;
78686;SDS011;68002;52.310;6.990;2023-05-16T13:20:18;4.27;;;1.00;;
78686;SDS011;68002;52.310;6.990;2023-05-16T13:22:43;4.10;;;0.93;;
78686;SDS011;68002;52.310;6.990;2023-05-16T13:25:09;3.97;;;0.90;;
78686;SDS011;68002;52.310;6.990;2023-05-16T13:27:34;5.68;;;1.17;;
78686;SDS011;68002;52.310;6.990;2023-05-16T13:30:00;7.05;;;0.70;;
78686;SDS011;68002;52.310;6.990;2023-05-16T13:32:26;5.78;;;1.08;;
78686;SDS011;68002;52.310;6.990;2023-05-16T13:34:51;5.47;;;0.67;;
78686;SDS011;68002;52.310;6.990;2023-05-16T13:37:17;2.60;;;0.70;;
78686;SDS011;68002;52.310;6.990;2023-05-16T13:39:43;3.50;;;0.52;;
78686;SDS011;68002;52.310;6.990;2023-05-16T13:42:08;2.38;;;0.65;;
78686;SDS011;68002;52.310;6.990;2023-05-16T13:44:33;5.87;;;1.03;;
78686;SDS011;68002;52.310;6.990;2023-05-16T13:46:59;4.17;;;0.90;;
78686;SDS011;68002;52.310;6.990;2023-05-16T13:49:24;4.67;;;0.87;;
78686;SDS011;68002;52.310;6.990;2023-05-16T13:51:49;4.83;;;0.67;;
78686;SDS011;68002;52.310;6.990;2023-05-16T13:54:15;4.38;;;0.85;;
78686;SDS011;68002;52.310;6.990;2023-05-16T13:56:40;4.47;;;0.90;;
78686;SDS011;68002;52.310;6.990;2023-05-16T13:59:05;6.00;;;0.80;;
78686;SDS011;68002;52.310;6.990;2023-05-16T14:01:31;3.90;;;0.93;;
78686;SDS011;68002;52.310;6.990;2023-05-16T14:03:56;5.53;;;1.03;;
78686;SDS011;68002;52.310;6.990;2023-05-16T14:06:21;3.70;;;1.17;;
78686;SDS011;68002;52.310;6.990;2023-05-16T14:08:46;2.67;;;0.60;;
78686;SDS011;68002;52.310;6.990;2023-05-16T14:11:11;2.47;;;0.60;;
78686;SDS011;68002;52.310;6.990;2023-05-16T14:13:37;5.57;;;1.13;;
78686;SDS011;68002;52.310;6.990;2023-05-16T14:16:02;2.63;;;0.60;;
78686;SDS011;68002;52.310;6.990;2023-05-16T14:18:27;4.80;;;1.00;;
78686;SDS011;68002;52.310;6.990;2023-05-16T14:20:52;5.87;;;0.97;;
78686;SDS011;68002;52.310;6.990;2023-05-16T14:23:18;3.50;;;1.00;;
78686;SDS011;68002;52.310;6.990;2023-05-16T14:25:43;2.60;;;0.83;;
78686;SDS011;68002;52.310;6.990;2023-05-16T14:28:08;2.47;;;0.63;;
78686;SDS011;68002;52.310;6.990;2023-05-16T14:30:33;3.27;;;0.80;;
78686;SDS011;68002;52.310;6.990;2023-05-16T14:32:58;3.33;;;0.60;;
78686;SDS011;68002;52.310;6.990;2023-05-16T14:35:24;2.53;;;0.67;;
78686;SDS011;68002;52.310;6.990;2023-05-16T14:37:49;2.97;;;1.07;;
78686;SDS011;68002;52.310;6.990;2023-05-16T14:40:14;3.23;;;0.70;;
78686;SDS011;68002;52.310;6.990;2023-05-16T14:42:39;2.33;;;0.67;;
78686;SDS011;68002;52.310;6.990;2023-05-16T14:45:05;5.47;;;1.63;;
78686;SDS011;68002;52.310;6.990;2023-05-16T14:47:30;3.08;;;1.33;;
78686;SDS011;68002;52.310;6.990;2023-05-16T14:49:55;4.70;;;1.00;;
78686;SDS011;68002;52.310;6.990;2023-05-16T14:52:21;5.13;;;1.03;;
78686;SDS011;68002;52.310;6.990;2023-05-16T14:54:46;4.63;;;1.10;;
78686;SDS011;68002;52.310;6.990;2023-05-16T14:57:11;4.67;;;1.33;;
78686;SDS011;68002;52.310;6.990;2023-05-16T14:59:36;4.87;;;1.13;;